Saint Martins, Canada
Current Conditions -  °F | °C
As of 9:21 AM on Wednesday 22 Oct 2014 (Local Time) from CYSJ Reporting Station
Light Rain Light Rain  
Wind Chill: 50°   Ceiling: 8000
Heat Index: 50°   Visibility: 15mi
Dew Point: 41°   Wind: 12mph
Humidity: 71%   Direction: 60°ENE
Pressure: 30.27"   Gusts: 17mph
Location:  45.35°N, 65.53°W
Report Text: CYSJ 221221Z 06010G15KT 15SM -RA BKN080 BKN110 10/05 A3027 RMK AC6AC1 SLP254
Loading
Personal Weather Stations






























Interactive Weather Map
Tropical Storm Tracking
New forecast layout! Learn more

10-Day Weather Forecast

Advertisements
Track Severe Weather on mobile